sensor_id;sensor_type;location;lat;lon;timestamp;P1;durP1;ratioP1;P2;durP2;ratioP2
36355;SDS011;22384;54.302;18.596;2022-07-22T00:00:15;14.02;;;9.68;;
36355;SDS011;22384;54.302;18.596;2022-07-22T00:02:41;14.07;;;10.13;;
36355;SDS011;22384;54.302;18.596;2022-07-22T00:05:08;16.58;;;10.20;;
36355;SDS011;22384;54.302;18.596;2022-07-22T00:07:36;14.35;;;9.77;;
36355;SDS011;22384;54.302;18.596;2022-07-22T00:10:04;13.35;;;10.27;;
36355;SDS011;22384;54.302;18.596;2022-07-22T00:12:30;14.23;;;9.88;;
36355;SDS011;22384;54.302;18.596;2022-07-22T00:14:56;14.65;;;9.27;;
36355;SDS011;22384;54.302;18.596;2022-07-22T00:17:23;15.13;;;9.73;;
36355;SDS011;22384;54.302;18.596;2022-07-22T00:19:49;14.65;;;9.40;;
36355;SDS011;22384;54.302;18.596;2022-07-22T00:22:15;15.70;;;9.90;;
36355;SDS011;22384;54.302;18.596;2022-07-22T00:24:41;17.05;;;9.48;;
36355;SDS011;22384;54.302;18.596;2022-07-22T00:27:08;14.52;;;9.60;;
36355;SDS011;22384;54.302;18.596;2022-07-22T00:29:35;15.27;;;9.70;;
36355;SDS011;22384;54.302;18.596;2022-07-22T00:32:01;14.23;;;9.85;;
36355;SDS011;22384;54.302;18.596;2022-07-22T00:34:28;15.82;;;9.93;;
36355;SDS011;22384;54.302;18.596;2022-07-22T00:36:54;17.65;;;9.70;;
36355;SDS011;22384;54.302;18.596;2022-07-22T00:39:20;14.32;;;10.40;;
36355;SDS011;22384;54.302;18.596;2022-07-22T00:41:47;15.85;;;9.82;;
36355;SDS011;22384;54.302;18.596;2022-07-22T00:44:14;16.95;;;10.45;;
36355;SDS011;22384;54.302;18.596;2022-07-22T00:46:40;14.98;;;9.70;;
36355;SDS011;22384;54.302;18.596;2022-07-22T00:49:07;15.48;;;9.48;;
36355;SDS011;22384;54.302;18.596;2022-07-22T00:51:34;18.30;;;9.80;;
36355;SDS011;22384;54.302;18.596;2022-07-22T00:54:01;17.83;;;9.43;;
36355;SDS011;22384;54.302;18.596;2022-07-22T00:56:27;16.58;;;9.55;;
36355;SDS011;22384;54.302;18.596;2022-07-22T00:58:55;14.68;;;9.27;;
36355;SDS011;22384;54.302;18.596;2022-07-22T01:01:21;11.50;;;8.55;;
36355;SDS011;22384;54.302;18.596;2022-07-22T01:03:48;20.08;;;10.68;;
36355;SDS011;22384;54.302;18.596;2022-07-22T01:06:14;18.70;;;10.10;;
36355;SDS011;22384;54.302;18.596;2022-07-22T01:08:40;13.88;;;9.45;;
36355;SDS011;22384;54.302;18.596;2022-07-22T01:11:07;14.10;;;9.73;;
36355;SDS011;22384;54.302;18.596;2022-07-22T01:13:34;14.98;;;9.43;;
36355;SDS011;22384;54.302;18.596;2022-07-22T01:16:00;14.75;;;10.07;;
36355;SDS011;22384;54.302;18.596;2022-07-22T01:18:26;13.88;;;8.85;;
36355;SDS011;22384;54.302;18.596;2022-07-22T01:20:53;15.90;;;8.95;;
36355;SDS011;22384;54.302;18.596;2022-07-22T01:23:19;17.13;;;10.05;;
36355;SDS011;22384;54.302;18.596;2022-07-22T01:25:45;13.38;;;8.93;;
36355;SDS011;22384;54.302;18.596;2022-07-22T01:28:11;13.60;;;9.63;;
36355;SDS011;22384;54.302;18.596;2022-07-22T01:30:38;13.40;;;9.48;;
36355;SDS011;22384;54.302;18.596;2022-07-22T01:33:04;15.75;;;9.65;;
36355;SDS011;22384;54.302;18.596;2022-07-22T01:35:30;15.27;;;10.82;;
36355;SDS011;22384;54.302;18.596;2022-07-22T01:37:57;15.73;;;9.82;;
36355;SDS011;22384;54.302;18.596;2022-07-22T01:40:23;16.60;;;9.77;;
36355;SDS011;22384;54.302;18.596;2022-07-22T01:42:49;19.30;;;9.77;;
36355;SDS011;22384;54.302;18.596;2022-07-22T01:45:15;12.77;;;10.20;;
36355;SDS011;22384;54.302;18.596;2022-07-22T01:47:41;14.82;;;10.45;;
36355;SDS011;22384;54.302;18.596;2022-07-22T01:50:08;16.00;;;9.77;;
36355;SDS011;22384;54.302;18.596;2022-07-22T01:52:35;14.30;;;9.32;;
36355;SDS011;22384;54.302;18.596;2022-07-22T01:55:02;14.43;;;9.32;;
36355;SDS011;22384;54.302;18.596;2022-07-22T01:57:28;11.07;;;8.95;;
36355;SDS011;22384;54.302;18.596;2022-07-22T01:59:54;19.58;;;10.27;;
36355;SDS011;22384;54.302;18.596;2022-07-22T02:02:20;17.88;;;10.02;;
36355;SDS011;22384;54.302;18.596;2022-07-22T02:04:47;14.63;;;10.60;;
36355;SDS011;22384;54.302;18.596;2022-07-22T02:07:13;19.42;;;9.57;;
36355;SDS011;22384;54.302;18.596;2022-07-22T02:09:39;15.88;;;9.38;;
36355;SDS011;22384;54.302;18.596;2022-07-22T02:12:08;15.35;;;9.60;;
36355;SDS011;22384;54.302;18.596;2022-07-22T02:14:35;13.60;;;9.88;;
36355;SDS011;22384;54.302;18.596;2022-07-22T02:17:01;16.58;;;9.95;;
36355;SDS011;22384;54.302;18.596;2022-07-22T02:19:28;14.90;;;9.60;;
36355;SDS011;22384;54.302;18.596;2022-07-22T02:21:55;15.05;;;10.30;;
36355;SDS011;22384;54.302;18.596;2022-07-22T02:24:22;16.52;;;10.02;;
36355;SDS011;22384;54.302;18.596;2022-07-22T02:26:50;17.00;;;11.00;;
36355;SDS011;22384;54.302;18.596;2022-07-22T02:31:46;15.23;;;10.55;;
36355;SDS011;22384;54.302;18.596;2022-07-22T02:34:12;16.45;;;9.73;;
36355;SDS011;22384;54.302;18.596;2022-07-22T02:36:38;17.23;;;10.95;;
36355;SDS011;22384;54.302;18.596;2022-07-22T02:39:04;18.42;;;10.77;;
36355;SDS011;22384;54.302;18.596;2022-07-22T02:41:31;18.13;;;10.73;;
36355;SDS011;22384;54.302;18.596;2022-07-22T02:43:57;16.75;;;10.88;;
36355;SDS011;22384;54.302;18.596;2022-07-22T02:46:23;15.05;;;10.90;;
36355;SDS011;22384;54.302;18.596;2022-07-22T02:48:50;14.70;;;9.93;;
36355;SDS011;22384;54.302;18.596;2022-07-22T02:51:16;13.80;;;9.60;;
36355;SDS011;22384;54.302;18.596;2022-07-22T02:53:42;18.83;;;10.70;;
36355;SDS011;22384;54.302;18.596;2022-07-22T02:56:09;16.45;;;11.45;;
36355;SDS011;22384;54.302;18.596;2022-07-22T02:58:35;15.85;;;10.70;;
36355;SDS011;22384;54.302;18.596;2022-07-22T03:01:01;20.10;;;12.10;;
36355;SDS011;22384;54.302;18.596;2022-07-22T03:03:27;16.15;;;11.18;;
36355;SDS011;22384;54.302;18.596;2022-07-22T03:05:54;17.77;;;11.65;;
36355;SDS011;22384;54.302;18.596;2022-07-22T03:08:20;17.13;;;11.85;;
36355;SDS011;22384;54.302;18.596;2022-07-22T03:10:46;17.20;;;11.13;;
36355;SDS011;22384;54.302;18.596;2022-07-22T03:13:12;16.73;;;10.65;;
36355;SDS011;22384;54.302;18.596;2022-07-22T03:15:39;22.85;;;10.80;;
36355;SDS011;22384;54.302;18.596;2022-07-22T03:18:05;18.83;;;10.80;;
36355;SDS011;22384;54.302;18.596;2022-07-22T03:20:31;16.70;;;11.02;;
36355;SDS011;22384;54.302;18.596;2022-07-22T03:22:58;16.15;;;10.38;;
36355;SDS011;22384;54.302;18.596;2022-07-22T03:25:24;15.63;;;10.43;;
36355;SDS011;22384;54.302;18.596;2022-07-22T03:27:51;18.48;;;11.18;;
36355;SDS011;22384;54.302;18.596;2022-07-22T03:30:17;21.63;;;11.13;;
36355;SDS011;22384;54.302;18.596;2022-07-22T03:32:43;19.30;;;11.27;;
36355;SDS011;22384;54.302;18.596;2022-07-22T03:35:14;16.80;;;10.57;;
36355;SDS011;22384;54.302;18.596;2022-07-22T03:37:41;22.53;;;12.00;;
36355;SDS011;22384;54.302;18.596;2022-07-22T03:40:07;17.23;;;10.75;;
36355;SDS011;22384;54.302;18.596;2022-07-22T03:42:34;17.10;;;10.75;;
36355;SDS011;22384;54.302;18.596;2022-07-22T03:45:00;25.45;;;10.93;;
36355;SDS011;22384;54.302;18.596;2022-07-22T03:47:26;26.50;;;11.32;;
36355;SDS011;22384;54.302;18.596;2022-07-22T03:49:53;17.33;;;10.90;;
36355;SDS011;22384;54.302;18.596;2022-07-22T03:52:19;19.27;;;10.85;;
36355;SDS011;22384;54.302;18.596;2022-07-22T03:54:45;28.83;;;11.65;;
36355;SDS011;22384;54.302;18.596;2022-07-22T03:57:11;25.58;;;11.63;;
36355;SDS011;22384;54.302;18.596;2022-07-22T03:59:38;18.02;;;11.40;;
36355;SDS011;22384;54.302;18.596;2022-07-22T04:02:04;21.73;;;10.90;;
36355;SDS011;22384;54.302;18.596;2022-07-22T04:04:30;15.88;;;10.45;;
36355;SDS011;22384;54.302;18.596;2022-07-22T04:06:56;15.63;;;10.82;;
36355;SDS011;22384;54.302;18.596;2022-07-22T04:09:23;15.65;;;10.95;;
36355;SDS011;22384;54.302;18.596;2022-07-22T04:11:49;16.00;;;10.82;;
36355;SDS011;22384;54.302;18.596;2022-07-22T04:14:16;14.30;;;11.50;;
36355;SDS011;22384;54.302;18.596;2022-07-22T04:16:42;15.32;;;10.85;;
36355;SDS011;22384;54.302;18.596;2022-07-22T04:19:11;17.35;;;11.00;;
36355;SDS011;22384;54.302;18.596;2022-07-22T04:21:37;21.08;;;11.82;;
36355;SDS011;22384;54.302;18.596;2022-07-22T04:24:04;22.75;;;11.05;;
36355;SDS011;22384;54.302;18.596;2022-07-22T04:26:30;22.30;;;11.65;;
36355;SDS011;22384;54.302;18.596;2022-07-22T04:28:56;24.52;;;11.85;;
36355;SDS011;22384;54.302;18.596;2022-07-22T04:31:23;17.65;;;11.32;;
36355;SDS011;22384;54.302;18.596;2022-07-22T04:33:49;22.10;;;10.88;;
36355;SDS011;22384;54.302;18.596;2022-07-22T04:36:15;19.75;;;10.35;;
36355;SDS011;22384;54.302;18.596;2022-07-22T04:38:41;17.50;;;10.85;;
36355;SDS011;22384;54.302;18.596;2022-07-22T04:41:07;17.35;;;10.82;;
36355;SDS011;22384;54.302;18.596;2022-07-22T04:43:34;22.05;;;10.95;;
36355;SDS011;22384;54.302;18.596;2022-07-22T04:46:00;17.10;;;11.23;;
36355;SDS011;22384;54.302;18.596;2022-07-22T04:48:26;17.83;;;10.50;;
36355;SDS011;22384;54.302;18.596;2022-07-22T04:50:52;22.48;;;11.07;;
36355;SDS011;22384;54.302;18.596;2022-07-22T04:53:19;17.05;;;10.82;;
36355;SDS011;22384;54.302;18.596;2022-07-22T04:55:45;15.63;;;10.77;;
36355;SDS011;22384;54.302;18.596;2022-07-22T04:58:11;19.58;;;10.77;;
36355;SDS011;22384;54.302;18.596;2022-07-22T05:00:37;15.40;;;9.80;;
36355;SDS011;22384;54.302;18.596;2022-07-22T05:03:03;21.17;;;10.52;;
36355;SDS011;22384;54.302;18.596;2022-07-22T05:05:30;15.68;;;9.90;;
36355;SDS011;22384;54.302;18.596;2022-07-22T05:07:56;20.10;;;10.80;;
36355;SDS011;22384;54.302;18.596;2022-07-22T05:10:22;16.17;;;10.38;;
36355;SDS011;22384;54.302;18.596;2022-07-22T05:12:54;21.25;;;9.98;;
36355;SDS011;22384;54.302;18.596;2022-07-22T05:15:21;21.02;;;10.55;;
36355;SDS011;22384;54.302;18.596;2022-07-22T05:17:47;18.20;;;10.68;;
36355;SDS011;22384;54.302;18.596;2022-07-22T05:20:13;17.83;;;10.18;;
36355;SDS011;22384;54.302;18.596;2022-07-22T05:22:41;16.92;;;9.57;;
36355;SDS011;22384;54.302;18.596;2022-07-22T05:25:07;16.92;;;9.48;;
36355;SDS011;22384;54.302;18.596;2022-07-22T05:27:34;16.65;;;10.50;;
36355;SDS011;22384;54.302;18.596;2022-07-22T05:30:00;21.52;;;10.63;;
36355;SDS011;22384;54.302;18.596;2022-07-22T05:32:26;19.33;;;9.95;;
36355;SDS011;22384;54.302;18.596;2022-07-22T05:34:52;18.50;;;10.75;;
36355;SDS011;22384;54.302;18.596;2022-07-22T05:37:19;15.90;;;9.02;;
36355;SDS011;22384;54.302;18.596;2022-07-22T05:39:45;19.02;;;10.25;;
36355;SDS011;22384;54.302;18.596;2022-07-22T05:42:11;15.60;;;9.90;;
36355;SDS011;22384;54.302;18.596;2022-07-22T05:44:37;15.88;;;9.85;;
36355;SDS011;22384;54.302;18.596;2022-07-22T05:47:04;18.00;;;9.85;;
36355;SDS011;22384;54.302;18.596;2022-07-22T05:49:30;20.58;;;9.90;;
36355;SDS011;22384;54.302;18.596;2022-07-22T05:51:56;17.80;;;10.98;;
36355;SDS011;22384;54.302;18.596;2022-07-22T05:54:27;18.85;;;11.05;;
36355;SDS011;22384;54.302;18.596;2022-07-22T05:56:53;23.98;;;11.32;;
36355;SDS011;22384;54.302;18.596;2022-07-22T05:59:20;23.63;;;11.40;;
36355;SDS011;22384;54.302;18.596;2022-07-22T06:01:46;25.98;;;11.70;;
36355;SDS011;22384;54.302;18.596;2022-07-22T06:04:12;30.27;;;12.07;;
36355;SDS011;22384;54.302;18.596;2022-07-22T06:06:39;38.40;;;13.18;;
36355;SDS011;22384;54.302;18.596;2022-07-22T06:09:05;28.30;;;11.80;;
36355;SDS011;22384;54.302;18.596;2022-07-22T06:11:31;25.15;;;11.27;;
36355;SDS011;22384;54.302;18.596;2022-07-22T06:13:58;26.63;;;11.60;;
36355;SDS011;22384;54.302;18.596;2022-07-22T06:16:24;26.50;;;13.52;;
36355;SDS011;22384;54.302;18.596;2022-07-22T06:18:50;29.73;;;14.02;;
36355;SDS011;22384;54.302;18.596;2022-07-22T06:21:18;27.10;;;12.07;;
36355;SDS011;22384;54.302;18.596;2022-07-22T06:23:44;24.85;;;12.55;;
36355;SDS011;22384;54.302;18.596;2022-07-22T06:26:10;21.95;;;12.73;;
36355;SDS011;22384;54.302;18.596;2022-07-22T06:28:37;23.17;;;12.30;;
36355;SDS011;22384;54.302;18.596;2022-07-22T06:31:03;22.00;;;12.50;;
36355;SDS011;22384;54.302;18.596;2022-07-22T06:33:30;19.23;;;11.65;;
36355;SDS011;22384;54.302;18.596;2022-07-22T06:35:58;23.88;;;12.95;;
36355;SDS011;22384;54.302;18.596;2022-07-22T06:38:25;25.17;;;13.90;;
36355;SDS011;22384;54.302;18.596;2022-07-22T06:40:51;28.67;;;13.90;;
36355;SDS011;22384;54.302;18.596;2022-07-22T06:43:20;26.67;;;13.75;;
36355;SDS011;22384;54.302;18.596;2022-07-22T06:45:47;26.05;;;15.27;;
36355;SDS011;22384;54.302;18.596;2022-07-22T06:48:13;21.92;;;13.73;;
36355;SDS011;22384;54.302;18.596;2022-07-22T06:50:39;33.22;;;15.30;;
36355;SDS011;22384;54.302;18.596;2022-07-22T06:53:06;35.13;;;14.95;;
36355;SDS011;22384;54.302;18.596;2022-07-22T06:55:32;30.38;;;15.30;;
36355;SDS011;22384;54.302;18.596;2022-07-22T06:58:01;34.88;;;15.20;;
36355;SDS011;22384;54.302;18.596;2022-07-22T07:00:27;25.20;;;13.55;;
36355;SDS011;22384;54.302;18.596;2022-07-22T07:02:59;25.08;;;13.10;;
36355;SDS011;22384;54.302;18.596;2022-07-22T07:05:28;29.02;;;14.48;;
36355;SDS011;22384;54.302;18.596;2022-07-22T07:07:55;36.95;;;13.77;;
36355;SDS011;22384;54.302;18.596;2022-07-22T07:10:21;27.42;;;13.65;;
36355;SDS011;22384;54.302;18.596;2022-07-22T07:12:50;23.73;;;14.52;;
36355;SDS011;22384;54.302;18.596;2022-07-22T07:15:20;21.90;;;14.32;;
36355;SDS011;22384;54.302;18.596;2022-07-22T07:17:47;24.30;;;13.82;;
36355;SDS011;22384;54.302;18.596;2022-07-22T07:20:13;21.83;;;13.15;;
36355;SDS011;22384;54.302;18.596;2022-07-22T07:22:41;34.97;;;13.75;;
36355;SDS011;22384;54.302;18.596;2022-07-22T07:25:08;18.30;;;12.60;;
36355;SDS011;22384;54.302;18.596;2022-07-22T07:27:34;26.27;;;13.95;;
36355;SDS011;22384;54.302;18.596;2022-07-22T07:30:02;21.63;;;12.48;;
36355;SDS011;22384;54.302;18.596;2022-07-22T07:32:29;21.70;;;12.15;;
36355;SDS011;22384;54.302;18.596;2022-07-22T07:34:59;22.42;;;12.32;;
36355;SDS011;22384;54.302;18.596;2022-07-22T07:37:28;17.65;;;12.52;;
36355;SDS011;22384;54.302;18.596;2022-07-22T07:39:54;20.95;;;14.38;;
36355;SDS011;22384;54.302;18.596;2022-07-22T07:42:20;20.45;;;13.60;;
36355;SDS011;22384;54.302;18.596;2022-07-22T07:44:46;18.02;;;12.32;;
36355;SDS011;22384;54.302;18.596;2022-07-22T07:47:16;19.98;;;13.15;;
36355;SDS011;22384;54.302;18.596;2022-07-22T07:49:44;18.88;;;12.82;;
36355;SDS011;22384;54.302;18.596;2022-07-22T07:52:11;22.35;;;12.18;;
36355;SDS011;22384;54.302;18.596;2022-07-22T07:54:40;17.63;;;12.52;;
36355;SDS011;22384;54.302;18.596;2022-07-22T07:57:09;22.20;;;13.33;;
36355;SDS011;22384;54.302;18.596;2022-07-22T07:59:37;24.80;;;13.88;;
36355;SDS011;22384;54.302;18.596;2022-07-22T08:02:03;16.42;;;12.45;;
36355;SDS011;22384;54.302;18.596;2022-07-22T08:04:30;19.63;;;14.25;;
36355;SDS011;22384;54.302;18.596;2022-07-22T08:06:58;19.15;;;14.05;;
36355;SDS011;22384;54.302;18.596;2022-07-22T08:09:25;16.33;;;13.73;;
36355;SDS011;22384;54.302;18.596;2022-07-22T08:11:51;23.67;;;14.25;;
36355;SDS011;22384;54.302;18.596;2022-07-22T08:14:18;21.73;;;14.68;;
36355;SDS011;22384;54.302;18.596;2022-07-22T08:16:48;22.17;;;13.93;;
36355;SDS011;22384;54.302;18.596;2022-07-22T08:19:16;25.13;;;14.82;;
36355;SDS011;22384;54.302;18.596;2022-07-22T08:21:42;22.65;;;14.05;;
36355;SDS011;22384;54.302;18.596;2022-07-22T08:24:09;26.55;;;14.60;;
36355;SDS011;22384;54.302;18.596;2022-07-22T08:26:35;19.88;;;14.40;;
36355;SDS011;22384;54.302;18.596;2022-07-22T08:29:02;18.75;;;13.40;;
36355;SDS011;22384;54.302;18.596;2022-07-22T08:31:29;15.85;;;13.38;;
36355;SDS011;22384;54.302;18.596;2022-07-22T08:33:59;18.77;;;13.07;;
36355;SDS011;22384;54.302;18.596;2022-07-22T08:36:26;16.23;;;13.70;;
36355;SDS011;22384;54.302;18.596;2022-07-22T08:38:52;20.23;;;13.57;;
36355;SDS011;22384;54.302;18.596;2022-07-22T08:41:18;20.65;;;13.50;;
36355;SDS011;22384;54.302;18.596;2022-07-22T08:43:46;19.95;;;12.77;;
36355;SDS011;22384;54.302;18.596;2022-07-22T08:46:12;23.52;;;14.00;;
36355;SDS011;22384;54.302;18.596;2022-07-22T08:48:39;19.60;;;13.55;;
36355;SDS011;22384;54.302;18.596;2022-07-22T08:51:08;19.48;;;14.27;;
36355;SDS011;22384;54.302;18.596;2022-07-22T08:53:39;17.85;;;12.35;;
36355;SDS011;22384;54.302;18.596;2022-07-22T08:56:06;17.77;;;13.55;;
36355;SDS011;22384;54.302;18.596;2022-07-22T08:58:32;17.95;;;10.30;;
36355;SDS011;22384;54.302;18.596;2022-07-22T09:01:05;14.57;;;9.18;;
36355;SDS011;22384;54.302;18.596;2022-07-22T09:03:35;13.75;;;9.88;;
36355;SDS011;22384;54.302;18.596;2022-07-22T09:06:09;18.60;;;10.02;;
36355;SDS011;22384;54.302;18.596;2022-07-22T09:08:56;18.63;;;10.13;;
36355;SDS011;22384;54.302;18.596;2022-07-22T09:11:25;11.18;;;8.02;;
36355;SDS011;22384;54.302;18.596;2022-07-22T09:13:54;12.10;;;8.52;;
36355;SDS011;22384;54.302;18.596;2022-07-22T09:16:47;16.67;;;9.93;;
36355;SDS011;22384;54.302;18.596;2022-07-22T09:19:14;16.85;;;11.27;;
36355;SDS011;22384;54.302;18.596;2022-07-22T09:21:42;20.45;;;9.85;;
36355;SDS011;22384;54.302;18.596;2022-07-22T09:24:09;17.15;;;10.57;;
36355;SDS011;22384;54.302;18.596;2022-07-22T09:26:53;10.93;;;8.50;;
36355;SDS011;22384;54.302;18.596;2022-07-22T09:29:19;15.30;;;8.05;;
36355;SDS011;22384;54.302;18.596;2022-07-22T09:31:49;13.85;;;9.57;;
36355;SDS011;22384;54.302;18.596;2022-07-22T09:34:25;14.73;;;9.10;;
36355;SDS011;22384;54.302;18.596;2022-07-22T09:36:55;19.38;;;9.15;;
36355;SDS011;22384;54.302;18.596;2022-07-22T09:39:28;18.57;;;10.77;;
36355;SDS011;22384;54.302;18.596;2022-07-22T09:42:02;16.77;;;10.27;;
36355;SDS011;22384;54.302;18.596;2022-07-22T09:44:29;11.60;;;7.82;;
36355;SDS011;22384;54.302;18.596;2022-07-22T09:46:55;15.75;;;10.15;;
36355;SDS011;22384;54.302;18.596;2022-07-22T09:49:31;16.75;;;11.13;;
36355;SDS011;22384;54.302;18.596;2022-07-22T09:52:03;15.20;;;10.27;;
36355;SDS011;22384;54.302;18.596;2022-07-22T09:54:30;17.13;;;9.45;;
36355;SDS011;22384;54.302;18.596;2022-07-22T09:56:57;15.48;;;9.60;;
36355;SDS011;22384;54.302;18.596;2022-07-22T09:59:23;15.07;;;10.43;;
36355;SDS011;22384;54.302;18.596;2022-07-22T10:01:53;21.27;;;10.70;;
36355;SDS011;22384;54.302;18.596;2022-07-22T10:04:20;18.80;;;11.07;;
36355;SDS011;22384;54.302;18.596;2022-07-22T10:06:49;21.55;;;10.95;;
36355;SDS011;22384;54.302;18.596;2022-07-22T10:09:16;17.75;;;11.68;;
36355;SDS011;22384;54.302;18.596;2022-07-22T10:11:43;13.45;;;9.40;;
36355;SDS011;22384;54.302;18.596;2022-07-22T10:14:13;13.85;;;10.63;;
36355;SDS011;22384;54.302;18.596;2022-07-22T10:16:40;18.27;;;10.55;;
36355;SDS011;22384;54.302;18.596;2022-07-22T10:19:06;18.20;;;11.43;;
36355;SDS011;22384;54.302;18.596;2022-07-22T10:21:35;16.85;;;10.57;;
36355;SDS011;22384;54.302;18.596;2022-07-22T10:24:15;16.42;;;10.15;;
36355;SDS011;22384;54.302;18.596;2022-07-22T10:26:52;16.65;;;11.32;;
36355;SDS011;22384;54.302;18.596;2022-07-22T10:31:52;16.38;;;10.07;;
36355;SDS011;22384;54.302;18.596;2022-07-22T10:34:31;20.30;;;11.40;;
36355;SDS011;22384;54.302;18.596;2022-07-22T10:36:57;14.00;;;9.80;;
36355;SDS011;22384;54.302;18.596;2022-07-22T10:39:23;11.13;;;8.48;;
36355;SDS011;22384;54.302;18.596;2022-07-22T10:41:51;18.52;;;11.63;;
36355;SDS011;22384;54.302;18.596;2022-07-22T10:44:45;20.85;;;12.10;;
36355;SDS011;22384;54.302;18.596;2022-07-22T10:47:04;33.15;;;18.92;;
36355;SDS011;22384;54.302;18.596;2022-07-22T10:49:30;15.00;;;8.35;;
36355;SDS011;22384;54.302;18.596;2022-07-22T10:57:31;12.75;;;9.40;;
36355;SDS011;22384;54.302;18.596;2022-07-22T10:59:57;13.30;;;10.05;;
36355;SDS011;22384;54.302;18.596;2022-07-22T11:02:24;11.13;;;8.98;;
36355;SDS011;22384;54.302;18.596;2022-07-22T11:04:51;11.25;;;8.20;;
36355;SDS011;22384;54.302;18.596;2022-07-22T11:07:20;13.00;;;8.70;;
36355;SDS011;22384;54.302;18.596;2022-07-22T11:09:46;11.85;;;7.57;;
36355;SDS011;22384;54.302;18.596;2022-07-22T11:12:21;11.57;;;7.60;;
36355;SDS011;22384;54.302;18.596;2022-07-22T11:14:50;10.15;;;6.82;;
36355;SDS011;22384;54.302;18.596;2022-07-22T11:17:16;9.38;;;6.57;;
36355;SDS011;22384;54.302;18.596;2022-07-22T11:19:50;13.23;;;7.22;;
36355;SDS011;22384;54.302;18.596;2022-07-22T11:22:16;9.00;;;6.38;;
36355;SDS011;22384;54.302;18.596;2022-07-22T11:24:47;8.57;;;6.60;;
36355;SDS011;22384;54.302;18.596;2022-07-22T11:27:15;10.88;;;6.70;;
36355;SDS011;22384;54.302;18.596;2022-07-22T11:29:50;11.25;;;7.03;;
36355;SDS011;22384;54.302;18.596;2022-07-22T11:32:20;11.82;;;6.95;;
36355;SDS011;22384;54.302;18.596;2022-07-22T11:34:47;12.15;;;6.53;;
36355;SDS011;22384;54.302;18.596;2022-07-22T11:37:13;10.52;;;6.63;;
36355;SDS011;22384;54.302;18.596;2022-07-22T11:39:40;9.05;;;6.32;;
36355;SDS011;22384;54.302;18.596;2022-07-22T11:42:06;9.02;;;6.15;;
36355;SDS011;22384;54.302;18.596;2022-07-22T11:44:36;7.60;;;6.55;;
36355;SDS011;22384;54.302;18.596;2022-07-22T11:47:03;9.40;;;6.60;;
36355;SDS011;22384;54.302;18.596;2022-07-22T11:49:31;13.15;;;6.90;;
36355;SDS011;22384;54.302;18.596;2022-07-22T11:54:26;7.82;;;6.68;;
36355;SDS011;22384;54.302;18.596;2022-07-22T11:56:53;7.38;;;6.53;;
36355;SDS011;22384;54.302;18.596;2022-07-22T11:59:21;8.30;;;6.28;;
36355;SDS011;22384;54.302;18.596;2022-07-22T12:01:48;9.38;;;6.63;;
36355;SDS011;22384;54.302;18.596;2022-07-22T12:04:19;8.25;;;6.30;;
36355;SDS011;22384;54.302;18.596;2022-07-22T12:06:46;8.50;;;6.40;;
36355;SDS011;22384;54.302;18.596;2022-07-22T12:09:28;8.23;;;6.43;;
36355;SDS011;22384;54.302;18.596;2022-07-22T12:11:59;9.55;;;7.13;;
36355;SDS011;22384;54.302;18.596;2022-07-22T12:14:27;8.05;;;6.43;;
36355;SDS011;22384;54.302;18.596;2022-07-22T12:16:55;17.10;;;6.78;;
36355;SDS011;22384;54.302;18.596;2022-07-22T12:19:21;9.52;;;6.43;;
36355;SDS011;22384;54.302;18.596;2022-07-22T12:21:52;11.40;;;7.57;;
36355;SDS011;22384;54.302;18.596;2022-07-22T12:24:30;10.32;;;6.82;;
36355;SDS011;22384;54.302;18.596;2022-07-22T12:26:57;8.43;;;6.18;;
36355;SDS011;22384;54.302;18.596;2022-07-22T12:29:25;9.30;;;6.95;;
36355;SDS011;22384;54.302;18.596;2022-07-22T12:31:53;7.20;;;6.10;;
36355;SDS011;22384;54.302;18.596;2022-07-22T12:34:35;8.13;;;6.32;;
36355;SDS011;22384;54.302;18.596;2022-07-22T12:39:27;9.35;;;6.10;;
36355;SDS011;22384;54.302;18.596;2022-07-22T12:41:54;9.55;;;6.93;;
36355;SDS011;22384;54.302;18.596;2022-07-22T12:44:24;9.27;;;6.53;;
36355;SDS011;22384;54.302;18.596;2022-07-22T12:46:52;8.38;;;6.28;;
36355;SDS011;22384;54.302;18.596;2022-07-22T12:49:20;8.38;;;5.95;;
36355;SDS011;22384;54.302;18.596;2022-07-22T12:54:35;7.95;;;6.60;;
36355;SDS011;22384;54.302;18.596;2022-07-22T12:57:02;9.75;;;6.07;;
36355;SDS011;22384;54.302;18.596;2022-07-22T12:59:28;6.72;;;6.03;;
36355;SDS011;22384;54.302;18.596;2022-07-22T13:01:55;10.65;;;6.03;;
36355;SDS011;22384;54.302;18.596;2022-07-22T13:04:21;6.97;;;5.93;;
36355;SDS011;22384;54.302;18.596;2022-07-22T13:06:47;6.03;;;5.43;;
36355;SDS011;22384;54.302;18.596;2022-07-22T13:09:14;7.05;;;5.70;;
36355;SDS011;22384;54.302;18.596;2022-07-22T13:11:40;6.90;;;5.63;;
36355;SDS011;22384;54.302;18.596;2022-07-22T13:14:12;9.95;;;5.82;;
36355;SDS011;22384;54.302;18.596;2022-07-22T13:16:39;10.80;;;5.78;;
36355;SDS011;22384;54.302;18.596;2022-07-22T13:19:06;8.90;;;5.53;;
36355;SDS011;22384;54.302;18.596;2022-07-22T13:21:32;9.15;;;5.38;;
36355;SDS011;22384;54.302;18.596;2022-07-22T13:23:59;7.20;;;5.25;;
36355;SDS011;22384;54.302;18.596;2022-07-22T13:26:25;7.25;;;4.50;;
36355;SDS011;22384;54.302;18.596;2022-07-22T13:28:51;5.70;;;4.55;;
36355;SDS011;22384;54.302;18.596;2022-07-22T13:31:18;5.90;;;4.45;;
36355;SDS011;22384;54.302;18.596;2022-07-22T13:33:44;7.25;;;4.80;;
36355;SDS011;22384;54.302;18.596;2022-07-22T13:36:10;7.35;;;4.82;;
36355;SDS011;22384;54.302;18.596;2022-07-22T13:38:36;8.68;;;5.43;;
36355;SDS011;22384;54.302;18.596;2022-07-22T13:41:02;13.40;;;7.78;;
36355;SDS011;22384;54.302;18.596;2022-07-22T13:43:41;13.10;;;7.72;;
36355;SDS011;22384;54.302;18.596;2022-07-22T13:46:08;15.07;;;7.93;;
36355;SDS011;22384;54.302;18.596;2022-07-22T13:48:34;12.40;;;7.93;;
36355;SDS011;22384;54.302;18.596;2022-07-22T13:51:00;13.40;;;7.15;;
36355;SDS011;22384;54.302;18.596;2022-07-22T13:53:29;12.00;;;7.72;;
36355;SDS011;22384;54.302;18.596;2022-07-22T13:55:56;15.20;;;7.50;;
36355;SDS011;22384;54.302;18.596;2022-07-22T13:58:22;14.10;;;8.25;;
36355;SDS011;22384;54.302;18.596;2022-07-22T14:00:48;12.02;;;7.55;;
36355;SDS011;22384;54.302;18.596;2022-07-22T14:03:17;12.48;;;7.78;;
36355;SDS011;22384;54.302;18.596;2022-07-22T14:05:46;11.67;;;7.17;;
36355;SDS011;22384;54.302;18.596;2022-07-22T14:08:15;7.22;;;6.43;;
36355;SDS011;22384;54.302;18.596;2022-07-22T14:10:42;11.10;;;7.25;;
36355;SDS011;22384;54.302;18.596;2022-07-22T14:13:08;9.88;;;6.70;;
36355;SDS011;22384;54.302;18.596;2022-07-22T14:15:37;10.13;;;6.22;;
36355;SDS011;22384;54.302;18.596;2022-07-22T14:18:04;9.52;;;6.70;;
36355;SDS011;22384;54.302;18.596;2022-07-22T14:20:32;15.73;;;7.30;;
36355;SDS011;22384;54.302;18.596;2022-07-22T14:22:58;10.93;;;6.50;;
36355;SDS011;22384;54.302;18.596;2022-07-22T14:25:25;12.02;;;6.35;;
36355;SDS011;22384;54.302;18.596;2022-07-22T14:27:51;12.63;;;7.32;;
36355;SDS011;22384;54.302;18.596;2022-07-22T14:30:17;13.23;;;7.03;;
36355;SDS011;22384;54.302;18.596;2022-07-22T14:32:43;9.85;;;7.05;;
36355;SDS011;22384;54.302;18.596;2022-07-22T14:38:13;12.25;;;8.13;;